Time;durP1;ratioP1;P1;durP2;ratioP2;P2;SDS_P1;SDS_P2;PMS_P1;PMS_P2;Temp;Humidity;BMP_temperature;BMP_pressure;BME280_temperature;BME280_humidity;BME280_pressure;Samples;Min_cycle;Max_cycle;Signal;HPM_P1;HPM_P2
2021/12/05 00:23:08;;;;;;;13.80;4.30;;;5.70;86.90;;;;;;5009776;28;20030;-77
2021/12/05 00:25:35;;;;;;;10.27;3.15;;;5.70;86.60;;;;;;5008354;28;20389;-67
2021/12/05 00:58:04;;;;;;;11.48;3.33;;;5.70;85.90;;;;;;5009134;28;20096;-78
2021/12/05 01:03:47;;;;;;;9.32;3.47;;;5.60;85.80;;;;;;5019991;28;20565;-77
2021/12/05 01:07:10;;;;;;;14.90;4.03;;;5.70;85.80;;;;;;5028497;28;20029;-67
2021/12/05 01:16:45;;;;;;;9.73;3.30;;;5.60;85.90;;;;;;5032229;28;20160;-67
2021/12/05 01:19:13;;;;;;;10.82;2.97;;;5.60;85.90;;;;;;5032926;28;20480;-67
2021/12/05 01:21:40;;;;;;;8.82;3.25;;;5.60;85.90;;;;;;5030638;28;20400;-68
2021/12/05 01:24:20;;;;;;;11.38;3.33;;;5.60;86.00;;;;;;5030941;28;20148;-67
2021/12/05 01:27:12;;;;;;;12.77;4.10;;;5.60;85.70;;;;;;5031757;28;20029;-67
2021/12/05 01:29:49;;;;;;;12.93;3.60;;;5.60;85.80;;;;;;5011655;28;20500;-68
2021/12/05 01:37:55;;;;;;;13.33;3.30;;;5.60;85.60;;;;;;5012417;28;20440;-77
2021/12/05 01:54:01;;;;;;;12.02;2.97;;;5.60;85.20;;;;;;5029933;28;20041;-77
2021/12/05 02:09:55;;;;;;;7.90;2.83;;;5.50;85.10;;;;;;5008876;28;20475;-67
2021/12/05 02:43:13;;;;;;;13.20;3.33;;;5.40;85.20;;;;;;5019680;28;20064;-77
2021/12/05 02:45:47;;;;;;;16.90;3.10;;;5.40;85.20;;;;;;5030337;28;20061;-77
2021/12/05 02:48:15;;;;;;;14.80;3.97;;;5.40;85.10;;;;;;5020941;28;20030;-76
2021/12/05 02:50:43;;;;;;;10.88;3.95;;;5.40;85.00;;;;;;5029674;28;20535;-77
2021/12/05 02:53:18;;;;;;;13.95;3.42;;;5.40;85.20;;;;;;5029715;28;20033;-77
2021/12/05 02:55:46;;;;;;;8.93;2.90;;;5.40;85.20;;;;;;5029036;28;20091;-78
2021/12/05 03:03:28;;;;;;;10.38;3.45;;;5.40;84.90;;;;;;5030544;28;20052;-67
2021/12/05 03:06:01;;;;;;;13.68;3.97;;;5.40;85.60;;;;;;5029673;28;20033;-78
2021/12/05 03:08:27;;;;;;;18.45;3.58;;;5.40;85.70;;;;;;5030538;28;20132;-67
2021/12/05 03:10:55;;;;;;;13.95;4.45;;;5.40;85.10;;;;;;5029301;28;20456;-67
2021/12/05 03:13:22;;;;;;;20.33;4.22;;;5.40;84.80;;;;;;5040895;28;20224;-67
2021/12/05 03:15:48;;;;;;;15.68;5.60;;;5.40;84.80;;;;;;5049540;28;20132;-67
2021/12/05 03:18:14;;;;;;;13.40;3.40;;;5.40;84.60;;;;;;5048831;28;20029;-68
2021/12/05 03:20:40;;;;;;;13.40;3.40;;;5.40;84.80;;;;;;5050134;28;20378;-77
2021/12/05 03:23:06;;;;;;;16.60;3.55;;;5.40;84.90;;;;;;5050447;28;20069;-67
2021/12/05 03:25:32;;;;;;;15.32;4.32;;;5.40;84.90;;;;;;5049002;28;20029;-68
2021/12/05 03:27:58;;;;;;;14.70;4.00;;;5.40;84.80;;;;;;5046223;28;20048;-67
2021/12/05 03:30:26;;;;;;;13.30;4.07;;;5.40;84.90;;;;;;5018140;28;20029;-79
2021/12/05 03:32:53;;;;;;;16.70;3.75;;;5.40;84.90;;;;;;5027552;28;20476;-67
2021/12/05 03:35:23;;;;;;;18.00;3.63;;;5.40;84.80;;;;;;5029260;28;20068;-67
2021/12/05 03:37:49;;;;;;;13.95;3.60;;;5.30;84.80;;;;;;5029760;28;20460;-67
2021/12/05 03:40:19;;;;;;;14.05;3.58;;;5.30;84.80;;;;;;5028329;28;20116;-67
2021/12/05 03:42:46;;;;;;;9.05;3.25;;;5.30;84.80;;;;;;5029939;28;20093;-67
2021/12/05 03:45:16;;;;;;;13.88;4.25;;;5.30;84.90;;;;;;5024518;28;20030;-67
2021/12/05 03:47:42;;;;;;;12.95;3.03;;;5.30;85.00;;;;;;5012222;28;20412;-79
2021/12/05 03:50:10;;;;;;;14.30;3.10;;;5.40;84.90;;;;;;5027891;28;20037;-78
2021/12/05 03:52:37;;;;;;;12.13;3.42;;;5.40;84.80;;;;;;5030270;28;20067;-78
2021/12/05 03:55:05;;;;;;;14.98;3.97;;;5.40;84.90;;;;;;5026787;28;20064;-67
2021/12/05 03:57:30;;;;;;;11.70;3.10;;;5.40;84.80;;;;;;5029179;28;20477;-77
2021/12/05 03:59:56;;;;;;;10.55;3.28;;;5.30;84.90;;;;;;5028742;28;20037;-67
2021/12/05 04:02:22;;;;;;;20.08;4.18;;;5.30;84.80;;;;;;5025985;28;20033;-77
2021/12/05 04:04:50;;;;;;;10.05;2.75;;;5.30;84.90;;;;;;5027461;28;20472;-67
2021/12/05 04:07:16;;;;;;;8.27;2.75;;;5.30;85.00;;;;;;5028712;28;20046;-76
2021/12/05 04:09:43;;;;;;;14.00;3.15;;;5.40;85.20;;;;;;5029178;28;20437;-80
2021/12/05 04:12:10;;;;;;;9.70;3.40;;;5.40;85.30;;;;;;5029506;28;20103;-68
2021/12/05 04:14:39;;;;;;;11.05;3.85;;;5.40;85.30;;;;;;5027267;28;20029;-68
2021/12/05 04:17:08;;;;;;;15.23;3.30;;;5.40;85.20;;;;;;5037010;28;20013;-68
2021/12/05 04:19:35;;;;;;;14.70;3.83;;;5.40;85.10;;;;;;5026309;28;20026;-80
2021/12/05 04:22:03;;;;;;;10.95;3.50;;;5.40;85.20;;;;;;5025889;28;20488;-80
2021/12/05 04:24:29;;;;;;;9.00;3.05;;;5.40;85.20;;;;;;5028614;28;20491;-79
2021/12/05 04:26:54;;;;;;;12.43;3.20;;;5.40;85.30;;;;;;5027891;28;20021;-67
2021/12/05 04:29:20;;;;;;;9.38;3.88;;;5.50;85.30;;;;;;5027782;28;20030;-78
2021/12/05 04:31:47;;;;;;;11.65;3.15;;;5.50;85.20;;;;;;5024588;28;20179;-78
2021/12/05 04:34:13;;;;;;;13.70;3.67;;;5.50;85.40;;;;;;5009185;28;20033;-78
2021/12/05 04:36:41;;;;;;;15.93;3.95;;;5.50;85.40;;;;;;5009591;28;20030;-67
2021/12/05 04:39:07;;;;;;;10.65;4.00;;;5.50;85.40;;;;;;5008988;28;20026;-67
2021/12/05 04:41:33;;;;;;;10.50;4.28;;;5.50;85.40;;;;;;5013588;28;20208;-78
2021/12/05 04:44:01;;;;;;;9.55;3.88;;;5.50;85.30;;;;;;5023924;28;20325;-79
2021/12/05 04:46:28;;;;;;;9.30;3.88;;;5.50;85.50;;;;;;5033226;28;20024;-78
2021/12/05 04:48:55;;;;;;;14.73;4.80;;;5.50;85.60;;;;;;5026757;28;20057;-78
2021/12/05 04:51:25;;;;;;;13.30;4.32;;;5.50;85.60;;;;;;5023842;28;20026;-79
2021/12/05 04:53:50;;;;;;;11.27;5.75;;;5.50;85.80;;;;;;5031696;28;20025;-79
2021/12/05 04:56:16;;;;;;;14.63;4.35;;;5.50;85.80;;;;;;5020724;28;20038;-78
2021/12/05 04:58:43;;;;;;;17.30;5.65;;;5.50;85.80;;;;;;5031822;28;20543;-78
2021/12/05 05:01:08;;;;;;;7.35;3.97;;;5.50;85.70;;;;;;5022956;28;20125;-67
2021/12/05 05:03:35;;;;;;;10.05;4.20;;;5.50;85.50;;;;;;5047258;28;20528;-79
2021/12/05 05:06:14;;;;;;;10.65;4.18;;;5.50;85.50;;;;;;5024002;28;20076;-79
2021/12/05 05:08:40;;;;;;;14.05;5.20;;;5.50;85.60;;;;;;5032164;28;20048;-77
2021/12/05 05:11:09;;;;;;;9.35;4.30;;;5.50;85.50;;;;;;5026885;28;20041;-67
2021/12/05 05:13:35;;;;;;;10.55;4.32;;;5.50;85.50;;;;;;5026494;28;20019;-67
2021/12/05 05:16:04;;;;;;;11.25;4.18;;;5.50;85.60;;;;;;5022962;28;20486;-67
2021/12/05 05:18:39;;;;;;;10.52;4.78;;;5.50;85.70;;;;;;5018015;28;20107;-67
2021/12/05 05:24:17;;;;;;;10.23;4.32;;;5.50;85.90;;;;;;5031319;28;20095;-68
2021/12/05 05:51:03;;;;;;;7.47;4.47;;;5.60;86.20;;;;;;5023083;28;20045;-80
2021/12/05 05:53:29;;;;;;;8.15;4.60;;;5.60;86.20;;;;;;5044875;28;20059;-79
2021/12/05 05:55:56;;;;;;;8.45;4.10;;;5.60;86.20;;;;;;5030765;28;20033;-67
2021/12/05 05:58:28;;;;;;;9.70;4.07;;;5.60;86.70;;;;;;5014227;28;20040;-67
2021/12/05 06:01:02;;;;;;;10.05;4.57;;;5.60;86.20;;;;;;5030390;28;20041;-78
2021/12/05 06:03:29;;;;;;;9.80;4.65;;;5.60;86.00;;;;;;5030048;28;20061;-67
2021/12/05 06:05:57;;;;;;;10.10;4.30;;;5.60;86.10;;;;;;5030811;28;20485;-78
2021/12/05 06:08:25;;;;;;;9.75;4.15;;;5.60;86.00;;;;;;5030912;28;20045;-78
2021/12/05 06:10:53;;;;;;;7.63;3.90;;;5.60;86.00;;;;;;5029720;28;20038;-67
2021/12/05 06:13:19;;;;;;;7.90;4.28;;;5.60;86.10;;;;;;5030974;28;20030;-67
2021/12/05 06:15:47;;;;;;;8.25;3.80;;;5.60;86.00;;;;;;5013088;28;20029;-67
2021/12/05 06:18:13;;;;;;;9.65;4.13;;;5.70;86.20;;;;;;5028748;28;20041;-77
2021/12/05 06:20:41;;;;;;;5.07;3.63;;;5.60;86.00;;;;;;5029812;28;20416;-68
2021/12/05 06:23:08;;;;;;;7.60;3.90;;;5.70;86.10;;;;;;5029402;28;20041;-68
2021/12/05 06:25:37;;;;;;;7.57;3.45;;;5.70;86.00;;;;;;5019636;28;20172;-77
2021/12/05 06:28:09;;;;;;;8.18;4.45;;;5.70;86.00;;;;;;5041674;28;20115;-67
2021/12/05 06:30:46;;;;;;;;;;;5.70;86.00;;;;;;5017025;28;20362;-67
2021/12/05 06:38:58;;;;;;;7.53;3.65;;;5.70;86.00;;;;;;5029979;28;20071;-68
2021/12/05 06:48:50;;;;;;;6.13;3.30;;;5.70;86.30;;;;;;5030115;28;20133;-67
2021/12/05 06:51:28;;;;;;;7.97;3.58;;;5.70;86.20;;;;;;5030417;28;20037;-67
2021/12/05 06:53:56;;;;;;;12.90;4.53;;;5.70;86.30;;;;;;5029043;28;20021;-67
2021/12/05 06:56:22;;;;;;;7.53;3.35;;;5.70;86.20;;;;;;5025545;28;20436;-67
2021/12/05 06:58:48;;;;;;;7.03;3.20;;;5.70;86.20;;;;;;5022898;28;20025;-68
2021/12/05 07:01:15;;;;;;;7.70;3.63;;;5.70;86.30;;;;;;5029034;28;20094;-67
2021/12/05 07:03:47;;;;;;;9.15;3.53;;;5.80;86.30;;;;;;5028403;28;20036;-67
2021/12/05 07:06:27;;;;;;;8.07;3.90;;;5.80;86.40;;;;;;5030050;28;20539;-77
2021/12/05 07:08:58;;;;;;;5.38;3.25;;;5.80;86.40;;;;;;5022497;28;20045;-77
2021/12/05 07:11:30;;;;;;;10.30;3.35;;;5.70;86.30;;;;;;5012696;28;20037;-78
2021/12/05 07:21:48;;;;;;;9.75;3.88;;;5.80;86.50;;;;;;5029491;28;20331;-77
2021/12/05 07:24:35;;;;;;;5.63;3.00;;;5.80;86.50;;;;;;5029230;28;20038;-77
2021/12/05 07:40:29;;;;;;;5.95;3.17;;;5.80;86.40;;;;;;5026976;28;20068;-67
2021/12/05 07:43:01;;;;;;;6.07;3.78;;;5.80;86.40;;;;;;5027960;28;20022;-77
2021/12/05 07:45:41;;;;;;;5.22;2.90;;;5.70;86.30;;;;;;5029148;28;20076;-67
2021/12/05 07:48:28;;;;;;;6.57;3.90;;;5.70;86.40;;;;;;5027559;28;20028;-68
2021/12/05 07:51:09;;;;;;;6.38;3.97;;;5.70;86.30;;;;;;5016991;28;20456;-68
2021/12/05 07:53:51;;;;;;;5.22;3.10;;;5.70;86.30;;;;;;5029012;28;20018;-77
2021/12/05 07:56:25;;;;;;;6.65;4.05;;;5.70;86.50;;;;;;5029199;28;20022;-78
2021/12/05 08:17:36;;;;;;;5.80;3.92;;;5.60;85.80;;;;;;5026729;28;20033;-67
2021/12/05 08:20:04;;;;;;;4.80;4.22;;;5.60;85.70;;;;;;5033420;28;20040;-67
2021/12/05 08:22:29;;;;;;;5.25;4.20;;;5.60;85.80;;;;;;5023608;28;20036;-74
2021/12/05 08:24:59;;;;;;;5.22;4.53;;;5.60;85.80;;;;;;5024433;28;20037;-67
2021/12/05 08:27:24;;;;;;;4.40;4.00;;;5.60;86.00;;;;;;5021885;28;20028;-73
2021/12/05 08:29:55;;;;;;;5.43;4.68;;;5.70;85.90;;;;;;5021173;28;20033;-74
2021/12/05 09:53:13;;;;;;;6.75;5.50;;;5.90;87.00;;;;;;5030119;28;20122;-67
2021/12/05 10:08:50;;;;;;;6.57;5.97;;;6.00;87.40;;;;;;5028606;28;20520;-67
2021/12/05 10:11:29;;;;;;;6.38;5.53;;;6.00;87.20;;;;;;5022166;28;21527;-67
2021/12/05 10:14:18;;;;;;;6.30;5.70;;;6.00;87.20;;;;;;5026539;28;20156;-73
2021/12/05 10:20:04;;;;;;;7.70;6.90;;;6.10;87.30;;;;;;5022976;28;20033;-67
2021/12/05 10:34:34;;;;;;;5.43;4.90;;;6.00;87.30;;;;;;4987797;28;20117;-67
2021/12/05 10:37:14;;;;;;;6.70;5.82;;;6.00;87.40;;;;;;5014697;28;20038;-67
2021/12/05 10:39:40;;;;;;;6.82;6.00;;;6.00;87.60;;;;;;5018246;28;20024;-67
2021/12/05 10:42:39;;;;;;;7.13;5.55;;;6.00;87.60;;;;;;5016718;28;20065;-67
2021/12/05 10:45:09;;;;;;;8.23;7.13;;;6.10;87.80;;;;;;5010550;28;20045;-67
2021/12/05 10:47:46;;;;;;;10.35;6.38;;;6.10;87.70;;;;;;5016816;28;20482;-67
2021/12/05 10:50:34;;;;;;;17.85;12.25;;;6.10;87.40;;;;;;5033789;28;20125;-67
2021/12/05 10:53:33;;;;;;;8.95;6.55;;;6.10;87.60;;;;;;5019324;28;20079;-67
2021/12/05 10:56:07;;;;;;;7.38;5.93;;;6.10;87.50;;;;;;5010726;28;20025;-67
2021/12/05 10:58:40;;;;;;;5.60;5.10;;;6.10;87.60;;;;;;5028581;28;20022;-67
2021/12/05 11:01:15;;;;;;;5.57;5.07;;;6.20;87.70;;;;;;5014844;28;20424;-67
2021/12/05 11:03:41;;;;;;;5.63;5.13;;;6.20;87.60;;;;;;5010682;28;20073;-67
2021/12/05 11:06:26;;;;;;;5.65;4.75;;;6.30;87.70;;;;;;5023946;28;20476;-67
2021/12/05 11:09:06;;;;;;;7.22;5.43;;;6.30;87.60;;;;;;5026440;28;20523;-67
2021/12/05 11:11:33;;;;;;;6.25;5.60;;;6.30;87.60;;;;;;5027985;28;20034;-67
2021/12/05 11:14:01;;;;;;;8.85;7.22;;;6.30;87.60;;;;;;5026165;28;20455;-72
2021/12/05 11:17:04;;;;;;;7.63;6.40;;;6.30;87.60;;;;;;5024733;28;20084;-72
2021/12/05 11:19:34;;;;;;;7.00;5.72;;;6.40;87.60;;;;;;5029135;28;20120;-72
2021/12/05 11:22:16;;;;;;;6.30;5.70;;;6.40;87.60;;;;;;5020220;28;20444;-73
2021/12/05 11:25:13;;;;;;;7.60;4.88;;;6.40;87.70;;;;;;5024290;28;20093;-72
2021/12/05 11:27:54;;;;;;;6.10;5.50;;;6.50;87.60;;;;;;5028651;28;20033;-73
2021/12/05 11:30:31;;;;;;;6.53;5.45;;;6.40;87.40;;;;;;5022699;28;20473;-72
2021/12/05 11:33:19;;;;;;;6.53;5.85;;;6.40;87.40;;;;;;5024960;28;20544;-72
2021/12/05 11:35:53;;;;;;;6.50;5.80;;;6.40;87.10;;;;;;5024936;28;20044;-72
2021/12/05 11:38:38;;;;;;;7.03;5.90;;;6.40;87.30;;;;;;5018672;28;20492;-72
2021/12/05 11:41:10;;;;;;;7.38;6.20;;;6.40;87.20;;;;;;5022531;28;20065;-72
2021/12/05 11:43:54;;;;;;;9.13;7.35;;;6.40;87.10;;;;;;5020367;28;20076;-72
2021/12/05 11:46:29;;;;;;;7.78;6.97;;;6.40;87.30;;;;;;5024430;28;20033;-72
2021/12/05 11:48:59;;;;;;;6.95;6.00;;;6.40;87.30;;;;;;5014876;28;20022;-72
2021/12/05 11:51:44;;;;;;;7.50;6.30;;;6.40;87.20;;;;;;5023112;28;20056;-72
2021/12/05 11:54:16;;;;;;;7.13;6.43;;;6.40;87.20;;;;;;5054228;28;20045;-72
2021/12/05 11:57:00;;;;;;;6.82;6.22;;;6.40;87.20;;;;;;5022405;28;20496;-72
2021/12/05 11:59:30;;;;;;;7.00;6.30;;;6.40;87.10;;;;;;5016408;28;20241;-72
2021/12/05 12:02:08;;;;;;;8.10;6.78;;;6.40;86.90;;;;;;5021457;28;20068;-72
2021/12/05 12:04:42;;;;;;;7.65;6.68;;;6.40;86.90;;;;;;5013350;28;20025;-72
2021/12/05 12:07:35;;;;;;;7.20;6.50;;;6.50;87.00;;;;;;5013450;28;21268;-72
2021/12/05 12:10:38;;;;;;;7.22;6.63;;;6.50;87.10;;;;;;5022948;28;20566;-66
2021/12/05 12:13:13;;;;;;;8.80;6.70;;;6.50;86.90;;;;;;4999274;28;20033;-72
2021/12/05 12:15:42;;;;;;;7.07;6.38;;;6.50;86.90;;;;;;5010172;28;20082;-66
2021/12/05 12:18:29;;;;;;;7.20;6.50;;;6.40;87.10;;;;;;5013317;28;20049;-67
2021/12/05 12:20:57;;;;;;;6.60;6.00;;;6.50;87.00;;;;;;5032452;28;20025;-66
2021/12/05 12:23:24;;;;;;;6.70;5.90;;;6.40;86.90;;;;;;5013297;28;20037;-72
2021/12/05 12:25:55;;;;;;;7.45;6.65;;;6.40;86.90;;;;;;5014588;28;20065;-72
2021/12/05 12:28:21;;;;;;;8.77;7.90;;;6.50;87.10;;;;;;5026137;28;20045;-72
2021/12/05 12:31:02;;;;;;;11.90;9.95;;;6.50;87.20;;;;;;5019824;28;20028;-72
2021/12/05 12:33:40;;;;;;;10.90;7.95;;;6.50;87.00;;;;;;5024911;28;20033;-72
2021/12/05 12:36:06;;;;;;;9.55;8.07;;;6.60;87.00;;;;;;5014691;28;20037;-72
2021/12/05 12:38:43;;;;;;;9.80;8.05;;;6.60;87.00;;;;;;5018353;28;20041;-72
2021/12/05 12:41:21;;;;;;;7.78;6.97;;;6.60;87.10;;;;;;5010323;28;20041;-67
2021/12/05 12:44:01;;;;;;;7.75;6.50;;;6.60;87.20;;;;;;5015083;28;20176;-72
2021/12/05 12:46:45;;;;;;;7.05;6.35;;;6.70;87.20;;;;;;5025785;28;20025;-72
2021/12/05 12:49:14;;;;;;;8.07;6.35;;;6.60;87.10;;;;;;5044150;28;20030;-72
2021/12/05 12:51:48;;;;;;;7.05;6.35;;;6.70;87.30;;;;;;5022598;28;20025;-72
2021/12/05 12:54:35;;;;;;;8.25;7.07;;;6.70;87.20;;;;;;5020610;28;20038;-72
2021/12/05 12:57:06;;;;;;;7.97;7.00;;;6.70;87.30;;;;;;5014747;28;20029;-72
2021/12/05 12:59:35;;;;;;;6.53;5.63;;;6.70;87.30;;;;;;5023162;28;20029;-72
2021/12/05 13:10:26;;;;;;;5.60;5.03;;;6.70;87.00;;;;;;5014563;28;20045;-67
2021/12/05 13:13:16;;;;;;;5.47;4.65;;;6.70;87.00;;;;;;5029445;28;20084;-67
2021/12/05 13:16:10;;;;;;;4.88;4.38;;;6.70;87.00;;;;;;5027258;28;20162;-66
2021/12/05 13:18:40;;;;;;;7.25;5.18;;;6.70;86.80;;;;;;5027493;28;20357;-66
2021/12/05 13:21:16;;;;;;;4.55;4.15;;;6.70;87.00;;;;;;5052670;28;20035;-66
2021/12/05 13:23:48;;;;;;;5.05;4.55;;;6.70;86.90;;;;;;5040991;28;20147;-67
2021/12/05 13:26:28;;;;;;;5.32;4.70;;;6.70;86.60;;;;;;5031452;28;20663;-66
2021/12/05 13:28:58;;;;;;;4.85;4.20;;;6.70;86.60;;;;;;5031142;28;20029;-66
2021/12/05 13:31:29;;;;;;;5.18;4.68;;;6.80;86.70;;;;;;5017356;28;20022;-67
2021/12/05 13:34:36;;;;;;;4.65;4.20;;;6.80;86.70;;;;;;5032088;28;20032;-67
2021/12/05 13:37:13;;;;;;;4.72;4.30;;;6.80;86.30;;;;;;5021927;28;20037;-67
2021/12/05 13:39:52;;;;;;;4.95;4.50;;;6.80;86.30;;;;;;5017638;28;20021;-67
2021/12/05 13:42:22;;;;;;;4.72;4.28;;;6.80;86.20;;;;;;5024714;28;20389;-67
2021/12/05 13:45:05;;;;;;;4.60;4.20;;;6.80;86.40;;;;;;5040732;28;20032;-66
2021/12/05 13:47:54;;;;;;;5.93;4.90;;;6.80;86.30;;;;;;5024280;28;20249;-67
2021/12/05 13:50:22;;;;;;;5.13;4.50;;;6.80;86.30;;;;;;5011688;28;20057;-67
2021/12/05 13:52:53;;;;;;;6.00;4.88;;;6.80;86.20;;;;;;5029281;28;20110;-67
2021/12/05 13:55:39;;;;;;;7.55;5.57;;;6.80;86.10;;;;;;5020728;28;20037;-66
2021/12/05 13:58:17;;;;;;;10.25;6.22;;;6.80;86.10;;;;;;5015973;28;20026;-66
2021/12/05 14:00:55;;;;;;;7.60;5.88;;;6.80;86.00;;;;;;5010755;28;20025;-66
2021/12/05 14:03:42;;;;;;;8.32;5.93;;;6.80;86.00;;;;;;5021735;28;20059;-66
2021/12/05 14:06:29;;;;;;;7.18;5.63;;;6.80;86.10;;;;;;5028703;28;20034;-71
2021/12/05 14:08:59;;;;;;;8.05;6.22;;;6.80;86.00;;;;;;5021681;28;20045;-72
2021/12/05 14:11:26;;;;;;;8.45;6.00;;;6.90;86.00;;;;;;5027218;28;20068;-71
2021/12/05 14:13:53;;;;;;;7.53;5.95;;;6.80;86.00;;;;;;5029556;28;20068;-66
2021/12/05 14:16:28;;;;;;;6.63;5.47;;;6.90;86.10;;;;;;5022129;28;20026;-66
2021/12/05 14:18:54;;;;;;;6.95;6.00;;;6.80;86.10;;;;;;5029298;28;20044;-66
2021/12/05 14:21:22;;;;;;;7.25;5.60;;;6.90;86.20;;;;;;5022900;28;20025;-66
2021/12/05 14:23:50;;;;;;;7.15;6.45;;;6.90;86.10;;;;;;5029946;28;20150;-66
2021/12/05 14:26:18;;;;;;;8.10;6.53;;;6.90;86.20;;;;;;5029349;28;20041;-66
2021/12/05 14:28:58;;;;;;;7.95;6.60;;;6.90;86.20;;;;;;5030641;28;20041;-66
2021/12/05 14:31:37;;;;;;;7.07;6.35;;;6.90;86.20;;;;;;5011512;28;20438;-66
2021/12/05 14:34:04;;;;;;;7.00;6.32;;;6.90;86.20;;;;;;5025187;28;20056;-67
2021/12/05 14:36:35;;;;;;;7.00;6.30;;;6.90;86.10;;;;;;5019880;28;20033;-66
2021/12/05 14:39:27;;;;;;;7.90;6.18;;;6.90;86.10;;;;;;5028435;28;20030;-66
2021/12/05 14:42:00;;;;;;;6.85;6.22;;;6.90;86.10;;;;;;5018012;28;20033;-66
2021/12/05 14:44:27;;;;;;;7.72;6.97;;;6.90;86.10;;;;;;5026072;28;20116;-66
2021/12/05 14:47:15;;;;;;;7.45;6.53;;;6.80;86.10;;;;;;5029034;28;20119;-66
2021/12/05 14:49:49;;;;;;;8.27;7.15;;;6.80;86.20;;;;;;5021333;28;20337;-67
2021/12/05 14:52:21;;;;;;;7.90;7.10;;;6.80;86.20;;;;;;5025265;28;20476;-72
2021/12/05 14:54:47;;;;;;;7.60;6.90;;;6.80;86.20;;;;;;5026788;28;20026;-72
2021/12/05 14:57:20;;;;;;;8.68;6.80;;;6.80;86.30;;;;;;5027841;28;20028;-72
2021/12/05 14:59:48;;;;;;;9.85;7.18;;;6.80;86.30;;;;;;5031347;28;20032;-72
2021/12/05 15:02:17;;;;;;;7.60;6.85;;;6.80;86.30;;;;;;5023976;28;20033;-66
2021/12/05 15:04:48;;;;;;;9.25;6.90;;;6.80;86.30;;;;;;5028973;28;20109;-66
2021/12/05 15:07:16;;;;;;;8.38;7.18;;;6.80;86.30;;;;;;5027591;28;20128;-66
2021/12/05 15:09:45;;;;;;;8.50;6.68;;;6.80;86.30;;;;;;5026634;28;20025;-72
2021/12/05 15:12:19;;;;;;;8.73;6.43;;;6.80;86.40;;;;;;5021649;28;20143;-72
2021/12/05 15:14:49;;;;;;;7.22;6.20;;;6.80;86.30;;;;;;5024820;28;20385;-72
2021/12/05 15:17:29;;;;;;;9.88;7.18;;;6.80;86.30;;;;;;5028562;28;20018;-72
2021/12/05 15:19:59;;;;;;;7.75;7.03;;;6.80;86.30;;;;;;5026020;28;20025;-66
2021/12/05 15:22:26;;;;;;;13.63;7.18;;;6.80;86.30;;;;;;5020428;28;20023;-66
2021/12/05 15:24:58;;;;;;;10.35;6.70;;;6.80;86.30;;;;;;5027358;28;20030;-72
2021/12/05 15:27:28;;;;;;;7.20;6.30;;;6.70;86.30;;;;;;5023216;28;20413;-72
2021/12/05 15:30:23;;;;;;;7.60;6.70;;;6.70;86.20;;;;;;5026390;28;20041;-72
2021/12/05 15:32:58;;;;;;;9.50;6.88;;;6.70;86.30;;;;;;5022692;28;20429;-72
2021/12/05 15:35:26;;;;;;;8.50;6.50;;;6.70;86.30;;;;;;5025239;28;20038;-71
2021/12/05 15:38:10;;;;;;;8.50;6.03;;;6.70;86.30;;;;;;5025459;28;20508;-66
2021/12/05 15:40:40;;;;;;;8.43;6.68;;;6.70;86.30;;;;;;5016286;28;20037;-71
2021/12/05 15:43:09;;;;;;;9.95;6.88;;;6.70;86.30;;;;;;5023463;28;20044;-72
2021/12/05 15:45:36;;;;;;;10.75;7.47;;;6.70;86.30;;;;;;5027641;28;20492;-72
2021/12/05 15:48:02;;;;;;;10.95;7.38;;;6.70;86.30;;;;;;5026944;28;20018;-72
2021/12/05 15:50:34;;;;;;;9.27;7.38;;;6.70;86.30;;;;;;5027590;28;20025;-68
2021/12/05 15:53:05;;;;;;;9.15;6.93;;;6.70;86.30;;;;;;5022305;28;20021;-68
2021/12/05 15:55:31;;;;;;;9.00;6.80;;;6.70;86.30;;;;;;5018907;28;20032;-68
2021/12/05 15:58:11;;;;;;;9.60;7.40;;;6.70;86.30;;;;;;5023471;28;20401;-68
2021/12/05 16:00:44;;;;;;;9.02;6.85;;;6.70;86.20;;;;;;5026599;28;20056;-68
2021/12/05 16:03:16;;;;;;;9.00;6.70;;;6.70;86.20;;;;;;5027086;28;20045;-67
2021/12/05 16:05:44;;;;;;;8.85;6.32;;;6.70;86.30;;;;;;5022816;28;20084;-72
2021/12/05 16:08:16;;;;;;;9.50;6.47;;;6.70;86.20;;;;;;5018345;28;20057;-72
2021/12/05 16:10:45;;;;;;;8.05;6.45;;;6.70;86.30;;;;;;5024388;28;20376;-68
2021/12/05 16:13:14;;;;;;;8.70;7.10;;;6.70;86.30;;;;;;5024939;28;20123;-68
2021/12/05 16:15:43;;;;;;;7.43;6.22;;;6.70;86.30;;;;;;5025363;28;20075;-68
2021/12/05 16:18:09;;;;;;;8.80;7.35;;;6.70;86.20;;;;;;5023649;28;20061;-68
2021/12/05 16:20:40;;;;;;;7.22;6.55;;;6.70;86.20;;;;;;5026757;28;20071;-72
2021/12/05 16:23:11;;;;;;;9.02;6.80;;;6.70;86.20;;;;;;5026926;28;20030;-72
2021/12/05 16:25:58;;;;;;;9.45;6.68;;;6.70;86.20;;;;;;5025605;28;20041;-72
2021/12/05 16:28:35;;;;;;;9.93;7.43;;;6.70;86.20;;;;;;5026933;28;20822;-72
2021/12/05 16:31:12;;;;;;;10.35;7.15;;;6.70;86.10;;;;;;5028145;28;20036;-72
2021/12/05 16:33:40;;;;;;;10.88;8.20;;;6.70;86.10;;;;;;5023829;28;20021;-72
2021/12/05 16:36:07;;;;;;;8.23;6.95;;;6.70;86.10;;;;;;5026576;28;20032;-72
2021/12/05 16:38:41;;;;;;;9.25;7.00;;;6.70;86.10;;;;;;5027550;28;20044;-72
2021/12/05 16:41:13;;;;;;;10.10;6.55;;;6.70;86.10;;;;;;5022862;28;20025;-70
2021/12/05 16:43:48;;;;;;;10.63;6.90;;;6.70;86.10;;;;;;5025613;28;20072;-68
2021/12/05 16:46:18;;;;;;;9.18;6.80;;;6.70;86.10;;;;;;5026569;28;20603;-67
2021/12/05 16:48:46;;;;;;;11.07;7.60;;;6.60;86.10;;;;;;5028066;28;20064;-68
2021/12/05 16:51:32;;;;;;;9.30;8.35;;;6.60;86.10;;;;;;5023856;28;20025;-68
2021/12/05 16:54:18;;;;;;;11.02;9.20;;;6.60;86.10;;;;;;5026040;28;20018;-72
2021/12/05 16:56:59;;;;;;;15.30;9.48;;;6.60;86.00;;;;;;5006201;28;20025;-72
2021/12/05 16:59:25;;;;;;;12.35;10.15;;;6.60;86.00;;;;;;5020367;28;20116;-72
2021/12/05 17:02:27;;;;;;;15.25;11.10;;;6.60;85.90;;;;;;5028147;28;20124;-67
2021/12/05 17:05:26;;;;;;;15.02;10.80;;;6.60;85.90;;;;;;5026083;28;20032;-72
2021/12/05 17:08:13;;;;;;;11.45;9.18;;;6.60;85.90;;;;;;5022781;28;20481;-72
2021/12/05 17:11:00;;;;;;;12.60;9.10;;;6.70;86.00;;;;;;5033236;28;20037;-68
2021/12/05 17:13:35;;;;;;;11.20;7.90;;;6.60;85.90;;;;;;5025282;28;20024;-67
2021/12/05 17:16:13;;;;;;;11.38;8.90;;;6.60;86.00;;;;;;5015787;28;20483;-68
2021/12/05 17:18:43;;;;;;;11.40;8.35;;;6.60;86.00;;;;;;5022514;28;20049;-68
2021/12/05 17:21:15;;;;;;;15.02;10.23;;;6.60;86.00;;;;;;5019231;28;20108;-68
2021/12/05 17:23:52;;;;;;;12.20;9.55;;;6.60;86.00;;;;;;5029364;28;20427;-67
2021/12/05 17:26:24;;;;;;;14.40;10.20;;;6.60;86.00;;;;;;5021491;28;20029;-68
2021/12/05 17:28:57;;;;;;;12.57;10.43;;;6.60;85.90;;;;;;5035231;28;20036;-68
2021/12/05 17:31:33;;;;;;;15.77;12.43;;;6.60;85.90;;;;;;5019979;28;20465;-67
2021/12/05 17:34:04;;;;;;;17.10;12.82;;;6.60;85.90;;;;;;5026953;28;20455;-68
2021/12/05 17:36:42;;;;;;;18.05;12.32;;;6.60;85.90;;;;;;5029949;28;20029;-67
2021/12/05 17:39:12;;;;;;;17.40;12.63;;;6.60;85.90;;;;;;5025576;28;20034;-68
2021/12/05 17:41:40;;;;;;;17.00;12.98;;;6.60;85.90;;;;;;5025757;28;20021;-68
2021/12/05 17:44:06;;;;;;;16.88;12.52;;;6.60;85.90;;;;;;5028347;28;20077;-68
2021/12/05 17:46:34;;;;;;;20.08;13.30;;;6.60;85.90;;;;;;5024471;28;20037;-67
2021/12/05 17:49:01;;;;;;;16.65;12.32;;;6.50;85.80;;;;;;5017170;28;20034;-67
2021/12/05 17:51:34;;;;;;;19.10;12.60;;;6.50;85.80;;;;;;5018669;28;20540;-68
2021/12/05 17:54:00;;;;;;;16.15;12.57;;;6.50;85.70;;;;;;5021269;28;20715;-68
2021/12/05 17:57:12;;;;;;;19.13;13.52;;;6.50;85.80;;;;;;5017924;28;20302;-68
2021/12/05 17:59:26;;;;;;;20.50;14.10;;;6.50;85.80;;;;;;5024084;28;20041;-68
2021/12/05 18:04:40;;;;;;;18.27;12.35;;;6.50;85.80;;;;;;5024573;28;20041;-72
2021/12/05 18:07:07;;;;;;;19.45;13.63;;;6.40;85.80;;;;;;5029552;28;20036;-68
2021/12/05 18:09:33;;;;;;;17.90;12.68;;;6.50;85.90;;;;;;5027380;28;20076;-72
2021/12/05 18:11:58;;;;;;;14.32;11.57;;;6.50;85.90;;;;;;5018161;28;20514;-72
2021/12/05 18:14:24;;;;;;;15.07;12.32;;;6.50;85.90;;;;;;5027144;28;20496;-68
2021/12/05 18:16:50;;;;;;;19.52;13.20;;;6.50;85.80;;;;;;5029721;28;20029;-68
2021/12/05 18:19:18;;;;;;;17.88;13.00;;;6.50;85.80;;;;;;5030530;28;20120;-72
2021/12/05 18:21:46;;;;;;;16.55;13.15;;;6.50;85.70;;;;;;5027873;28;20033;-72
2021/12/05 18:24:15;;;;;;;18.95;12.52;;;6.50;85.70;;;;;;5032814;28;20365;-72
2021/12/05 18:26:42;;;;;;;16.67;12.60;;;6.50;85.80;;;;;;5027153;28;20396;-72
2021/12/05 18:29:10;;;;;;;17.98;12.18;;;6.50;85.80;;;;;;5024093;28;20404;-70
2021/12/05 18:31:37;;;;;;;16.80;12.15;;;6.50;85.80;;;;;;5031275;28;20167;-72
2021/12/05 18:34:19;;;;;;;15.43;12.20;;;6.50;85.80;;;;;;5020513;28;20456;-68
2021/12/05 18:36:45;;;;;;;15.77;11.75;;;6.50;85.70;;;;;;5028346;28;20365;-68
2021/12/05 18:39:18;;;;;;;14.18;12.15;;;6.60;85.70;;;;;;5023046;28;20116;-68
2021/12/05 18:41:44;;;;;;;17.77;13.27;;;6.60;85.70;;;;;;5013556;28;20034;-68
2021/12/05 18:44:16;;;;;;;16.73;13.10;;;6.50;85.60;;;;;;5024214;28;20110;-68
2021/12/05 18:46:44;;;;;;;18.77;13.73;;;6.60;85.70;;;;;;5026549;28;20028;-68
2021/12/05 18:49:10;;;;;;;16.88;12.48;;;6.60;85.70;;;;;;5026726;28;20391;-68
2021/12/05 18:51:37;;;;;;;17.50;13.20;;;6.60;85.70;;;;;;5024501;28;20038;-68
2021/12/05 18:54:02;;;;;;;16.55;12.80;;;6.60;85.80;;;;;;5022027;28;20120;-68